sensor_id;sensor_type;location;lat;lon;timestamp;P1;durP1;ratioP1;P2;durP2;ratioP2
6442;SDS011;3254;47.372;8.512;2022-10-22T00:02:12;5.40;;;4.90;;
6442;SDS011;3254;47.372;8.512;2022-10-22T00:04:43;7.23;;;5.13;;
6442;SDS011;3254;47.372;8.512;2022-10-22T00:07:10;8.97;;;5.87;;
6442;SDS011;3254;47.372;8.512;2022-10-22T00:09:35;11.37;;;5.90;;
6442;SDS011;3254;47.372;8.512;2022-10-22T00:12:01;7.37;;;5.10;;
6442;SDS011;3254;47.372;8.512;2022-10-22T00:14:27;6.67;;;6.13;;
6442;SDS011;3254;47.372;8.512;2022-10-22T00:16:52;7.73;;;5.50;;
6442;SDS011;3254;47.372;8.512;2022-10-22T00:19:18;10.83;;;6.30;;
6442;SDS011;3254;47.372;8.512;2022-10-22T00:21:43;8.57;;;5.70;;
6442;SDS011;3254;47.372;8.512;2022-10-22T00:24:09;6.33;;;5.77;;
6442;SDS011;3254;47.372;8.512;2022-10-22T00:26:35;6.40;;;4.60;;
6442;SDS011;3254;47.372;8.512;2022-10-22T00:29:00;8.87;;;4.60;;
6442;SDS011;3254;47.372;8.512;2022-10-22T00:31:26;7.00;;;5.30;;
6442;SDS011;3254;47.372;8.512;2022-10-22T00:33:51;5.63;;;5.07;;
6442;SDS011;3254;47.372;8.512;2022-10-22T00:36:17;7.40;;;5.70;;
6442;SDS011;3254;47.372;8.512;2022-10-22T00:38:43;7.80;;;6.10;;
6442;SDS011;3254;47.372;8.512;2022-10-22T00:41:08;8.40;;;5.93;;
6442;SDS011;3254;47.372;8.512;2022-10-22T00:43:51;8.07;;;5.30;;
6442;SDS011;3254;47.372;8.512;2022-10-22T00:46:25;7.00;;;5.87;;
6442;SDS011;3254;47.372;8.512;2022-10-22T00:48:51;15.60;;;8.23;;
6442;SDS011;3254;47.372;8.512;2022-10-22T00:51:19;16.90;;;9.30;;
6442;SDS011;3254;47.372;8.512;2022-10-22T00:53:49;11.47;;;7.57;;
6442;SDS011;3254;47.372;8.512;2022-10-22T00:56:17;9.43;;;7.67;;
6442;SDS011;3254;47.372;8.512;2022-10-22T00:58:46;10.70;;;7.97;;
6442;SDS011;3254;47.372;8.512;2022-10-22T01:01:17;18.70;;;8.40;;
6442;SDS011;3254;47.372;8.512;2022-10-22T01:03:47;9.83;;;8.10;;
6442;SDS011;3254;47.372;8.512;2022-10-22T01:06:14;21.93;;;8.83;;
6442;SDS011;3254;47.372;8.512;2022-10-22T01:11:20;15.20;;;8.93;;
6442;SDS011;3254;47.372;8.512;2022-10-22T01:13:59;15.00;;;9.87;;
6442;SDS011;3254;47.372;8.512;2022-10-22T01:16:43;12.40;;;8.60;;
6442;SDS011;3254;47.372;8.512;2022-10-22T01:22:38;23.53;;;10.57;;
6442;SDS011;3254;47.372;8.512;2022-10-22T01:25:29;17.53;;;10.30;;
6442;SDS011;3254;47.372;8.512;2022-10-22T01:31:01;13.90;;;9.20;;
6442;SDS011;3254;47.372;8.512;2022-10-22T01:33:28;14.17;;;8.90;;
6442;SDS011;3254;47.372;8.512;2022-10-22T01:35:55;16.30;;;8.20;;
6442;SDS011;3254;47.372;8.512;2022-10-22T01:38:24;8.03;;;6.53;;
6442;SDS011;3254;47.372;8.512;2022-10-22T01:40:51;7.40;;;6.50;;
6442;SDS011;3254;47.372;8.512;2022-10-22T01:43:17;15.60;;;7.87;;
6442;SDS011;3254;47.372;8.512;2022-10-22T01:45:46;13.20;;;7.13;;
6442;SDS011;3254;47.372;8.512;2022-10-22T02:02:09;10.73;;;7.07;;
6442;SDS011;3254;47.372;8.512;2022-10-22T02:04:53;13.90;;;7.10;;
6442;SDS011;3254;47.372;8.512;2022-10-22T02:07:29;7.90;;;5.70;;
6442;SDS011;3254;47.372;8.512;2022-10-22T02:09:58;14.77;;;6.40;;
6442;SDS011;3254;47.372;8.512;2022-10-22T02:12:25;6.13;;;5.60;;
6442;SDS011;3254;47.372;8.512;2022-10-22T02:14:53;6.27;;;5.67;;
6442;SDS011;3254;47.372;8.512;2022-10-22T02:17:21;6.00;;;4.90;;
6442;SDS011;3254;47.372;8.512;2022-10-22T02:19:55;8.00;;;6.13;;
6442;SDS011;3254;47.372;8.512;2022-10-22T02:22:24;7.37;;;6.30;;
6442;SDS011;3254;47.372;8.512;2022-10-22T02:24:51;6.80;;;6.00;;
6442;SDS011;3254;47.372;8.512;2022-10-22T02:29:59;6.47;;;5.50;;
6442;SDS011;3254;47.372;8.512;2022-10-22T02:32:44;11.50;;;5.50;;
6442;SDS011;3254;47.372;8.512;2022-10-22T02:35:19;6.60;;;5.07;;
6442;SDS011;3254;47.372;8.512;2022-10-22T02:37:46;10.93;;;6.60;;
6442;SDS011;3254;47.372;8.512;2022-10-22T02:40:13;10.03;;;6.20;;
6442;SDS011;3254;47.372;8.512;2022-10-22T02:42:40;8.60;;;6.60;;
6442;SDS011;3254;47.372;8.512;2022-10-22T02:45:07;6.10;;;5.53;;
6442;SDS011;3254;47.372;8.512;2022-10-22T02:47:33;10.33;;;5.47;;
6442;SDS011;3254;47.372;8.512;2022-10-22T02:49:58;9.30;;;4.40;;
6442;SDS011;3254;47.372;8.512;2022-10-22T02:52:24;14.10;;;4.37;;
6442;SDS011;3254;47.372;8.512;2022-10-22T02:54:50;14.33;;;5.03;;
6442;SDS011;3254;47.372;8.512;2022-10-22T02:57:15;4.70;;;4.33;;
6442;SDS011;3254;47.372;8.512;2022-10-22T02:59:41;4.20;;;4.00;;
6442;SDS011;3254;47.372;8.512;2022-10-22T03:02:07;3.77;;;3.47;;
6442;SDS011;3254;47.372;8.512;2022-10-22T03:04:32;3.63;;;3.33;;
6442;SDS011;3254;47.372;8.512;2022-10-22T03:06:58;3.40;;;2.60;;
6442;SDS011;3254;47.372;8.512;2022-10-22T03:09:23;2.63;;;2.53;;
6442;SDS011;3254;47.372;8.512;2022-10-22T03:11:49;3.63;;;2.47;;
6442;SDS011;3254;47.372;8.512;2022-10-22T03:14:15;2.23;;;2.13;;
6442;SDS011;3254;47.372;8.512;2022-10-22T03:16:41;2.70;;;2.43;;
6442;SDS011;3254;47.372;8.512;2022-10-22T03:19:06;6.50;;;2.10;;
6442;SDS011;3254;47.372;8.512;2022-10-22T03:23:59;2.50;;;2.40;;
6442;SDS011;3254;47.372;8.512;2022-10-22T03:26:27;2.30;;;2.20;;
6442;SDS011;3254;47.372;8.512;2022-10-22T03:28:53;2.73;;;2.23;;
6442;SDS011;3254;47.372;8.512;2022-10-22T03:31:19;3.73;;;2.13;;
6442;SDS011;3254;47.372;8.512;2022-10-22T03:33:44;3.60;;;2.23;;
6442;SDS011;3254;47.372;8.512;2022-10-22T03:36:10;2.90;;;2.70;;
6442;SDS011;3254;47.372;8.512;2022-10-22T03:41:02;2.80;;;2.50;;
6442;SDS011;3254;47.372;8.512;2022-10-22T03:43:28;2.80;;;2.10;;
6442;SDS011;3254;47.372;8.512;2022-10-22T03:45:54;4.40;;;2.33;;
6442;SDS011;3254;47.372;8.512;2022-10-22T03:48:20;3.20;;;2.60;;
6442;SDS011;3254;47.372;8.512;2022-10-22T03:50:45;3.40;;;2.50;;
6442;SDS011;3254;47.372;8.512;2022-10-22T03:53:11;3.83;;;2.97;;
6442;SDS011;3254;47.372;8.512;2022-10-22T03:55:39;3.20;;;2.70;;
6442;SDS011;3254;47.372;8.512;2022-10-22T03:58:05;2.93;;;2.73;;
6442;SDS011;3254;47.372;8.512;2022-10-22T04:00:31;5.60;;;2.97;;
6442;SDS011;3254;47.372;8.512;2022-10-22T04:02:58;3.57;;;3.27;;
6442;SDS011;3254;47.372;8.512;2022-10-22T04:05:24;6.33;;;3.30;;
6442;SDS011;3254;47.372;8.512;2022-10-22T04:07:49;5.50;;;4.17;;
6442;SDS011;3254;47.372;8.512;2022-10-22T04:10:15;3.80;;;3.30;;
6442;SDS011;3254;47.372;8.512;2022-10-22T04:12:40;4.57;;;3.80;;
6442;SDS011;3254;47.372;8.512;2022-10-22T04:15:06;4.40;;;4.13;;
6442;SDS011;3254;47.372;8.512;2022-10-22T04:17:35;4.33;;;3.87;;
6442;SDS011;3254;47.372;8.512;2022-10-22T04:20:02;4.33;;;4.00;;
6442;SDS011;3254;47.372;8.512;2022-10-22T04:22:28;8.37;;;3.97;;
6442;SDS011;3254;47.372;8.512;2022-10-22T04:24:54;8.30;;;4.73;;
6442;SDS011;3254;47.372;8.512;2022-10-22T04:27:19;5.07;;;4.70;;
6442;SDS011;3254;47.372;8.512;2022-10-22T04:29:45;4.97;;;4.03;;
6442;SDS011;3254;47.372;8.512;2022-10-22T04:32:11;4.60;;;4.20;;
6442;SDS011;3254;47.372;8.512;2022-10-22T04:34:36;9.60;;;4.03;;
6442;SDS011;3254;47.372;8.512;2022-10-22T04:37:02;10.07;;;4.30;;
6442;SDS011;3254;47.372;8.512;2022-10-22T04:39:28;4.70;;;4.40;;
6442;SDS011;3254;47.372;8.512;2022-10-22T04:41:54;3.60;;;3.30;;
6442;SDS011;3254;47.372;8.512;2022-10-22T04:44:20;2.60;;;2.50;;
6442;SDS011;3254;47.372;8.512;2022-10-22T04:46:46;4.43;;;2.10;;
6442;SDS011;3254;47.372;8.512;2022-10-22T04:49:11;2.07;;;1.40;;
6442;SDS011;3254;47.372;8.512;2022-10-22T04:51:37;2.60;;;1.60;;
6442;SDS011;3254;47.372;8.512;2022-10-22T04:54:03;1.43;;;1.03;;
6442;SDS011;3254;47.372;8.512;2022-10-22T04:56:29;1.17;;;1.07;;
6442;SDS011;3254;47.372;8.512;2022-10-22T05:01:24;1.00;;;0.90;;
6442;SDS011;3254;47.372;8.512;2022-10-22T05:03:55;2.10;;;1.50;;
6442;SDS011;3254;47.372;8.512;2022-10-22T05:06:22;5.83;;;1.30;;
6442;SDS011;3254;47.372;8.512;2022-10-22T05:08:52;1.60;;;0.87;;
6442;SDS011;3254;47.372;8.512;2022-10-22T05:11:21;1.63;;;1.40;;
6442;SDS011;3254;47.372;8.512;2022-10-22T05:13:49;4.60;;;2.50;;
6442;SDS011;3254;47.372;8.512;2022-10-22T05:16:14;2.80;;;1.80;;
6442;SDS011;3254;47.372;8.512;2022-10-22T05:18:41;2.00;;;1.90;;
6442;SDS011;3254;47.372;8.512;2022-10-22T05:21:11;6.73;;;2.17;;
6442;SDS011;3254;47.372;8.512;2022-10-22T05:23:39;3.90;;;2.13;;
6442;SDS011;3254;47.372;8.512;2022-10-22T05:26:05;2.20;;;2.00;;
6442;SDS011;3254;47.372;8.512;2022-10-22T05:28:32;2.37;;;2.10;;
6442;SDS011;3254;47.372;8.512;2022-10-22T05:30:59;3.53;;;1.50;;
6442;SDS011;3254;47.372;8.512;2022-10-22T05:33:31;1.80;;;1.70;;
6442;SDS011;3254;47.372;8.512;2022-10-22T05:35:57;2.60;;;0.73;;
6442;SDS011;3254;47.372;8.512;2022-10-22T05:38:24;1.87;;;0.70;;
6442;SDS011;3254;47.372;8.512;2022-10-22T05:41:06;4.60;;;0.90;;
6442;SDS011;3254;47.372;8.512;2022-10-22T05:43:34;1.53;;;0.83;;
6442;SDS011;3254;47.372;8.512;2022-10-22T05:46:00;2.30;;;0.80;;
6442;SDS011;3254;47.372;8.512;2022-10-22T05:48:31;1.27;;;0.60;;
6442;SDS011;3254;47.372;8.512;2022-10-22T05:51:00;0.80;;;0.70;;
6442;SDS011;3254;47.372;8.512;2022-10-22T05:53:29;1.63;;;1.00;;
6442;SDS011;3254;47.372;8.512;2022-10-22T05:55:58;4.57;;;0.97;;
6442;SDS011;3254;47.372;8.512;2022-10-22T05:58:28;2.93;;;0.70;;
6442;SDS011;3254;47.372;8.512;2022-10-22T06:00:59;1.63;;;1.20;;
6442;SDS011;3254;47.372;8.512;2022-10-22T06:03:26;1.00;;;0.90;;
6442;SDS011;3254;47.372;8.512;2022-10-22T06:05:52;5.80;;;0.70;;
6442;SDS011;3254;47.372;8.512;2022-10-22T06:08:18;1.67;;;0.63;;
6442;SDS011;3254;47.372;8.512;2022-10-22T06:10:44;0.70;;;0.60;;
6442;SDS011;3254;47.372;8.512;2022-10-22T06:13:09;0.80;;;0.60;;
6442;SDS011;3254;47.372;8.512;2022-10-22T06:15:35;0.80;;;0.70;;
6442;SDS011;3254;47.372;8.512;2022-10-22T06:18:00;1.00;;;0.70;;
6442;SDS011;3254;47.372;8.512;2022-10-22T06:20:26;0.90;;;0.90;;
6442;SDS011;3254;47.372;8.512;2022-10-22T06:22:52;6.10;;;0.90;;
6442;SDS011;3254;47.372;8.512;2022-10-22T06:25:18;0.80;;;0.73;;
6442;SDS011;3254;47.372;8.512;2022-10-22T06:27:48;1.53;;;0.80;;
6442;SDS011;3254;47.372;8.512;2022-10-22T06:30:15;0.87;;;0.60;;
6442;SDS011;3254;47.372;8.512;2022-10-22T06:32:41;1.47;;;0.70;;
6442;SDS011;3254;47.372;8.512;2022-10-22T06:35:07;0.70;;;0.50;;
6442;SDS011;3254;47.372;8.512;2022-10-22T06:37:32;1.43;;;0.50;;
6442;SDS011;3254;47.372;8.512;2022-10-22T06:39:58;2.20;;;0.63;;
6442;SDS011;3254;47.372;8.512;2022-10-22T06:42:24;0.90;;;0.77;;
6442;SDS011;3254;47.372;8.512;2022-10-22T06:44:49;0.70;;;0.50;;
6442;SDS011;3254;47.372;8.512;2022-10-22T06:47:15;0.70;;;0.50;;
6442;SDS011;3254;47.372;8.512;2022-10-22T06:49:40;1.20;;;0.40;;
6442;SDS011;3254;47.372;8.512;2022-10-22T06:52:06;2.50;;;0.60;;
6442;SDS011;3254;47.372;8.512;2022-10-22T06:54:32;3.60;;;0.70;;
6442;SDS011;3254;47.372;8.512;2022-10-22T06:56:58;1.23;;;0.47;;
6442;SDS011;3254;47.372;8.512;2022-10-22T06:59:23;1.83;;;0.67;;
6442;SDS011;3254;47.372;8.512;2022-10-22T07:01:49;0.97;;;0.50;;
6442;SDS011;3254;47.372;8.512;2022-10-22T07:04:14;0.70;;;0.50;;
6442;SDS011;3254;47.372;8.512;2022-10-22T07:06:40;0.63;;;0.43;;
6442;SDS011;3254;47.372;8.512;2022-10-22T07:09:06;1.07;;;0.40;;
6442;SDS011;3254;47.372;8.512;2022-10-22T07:11:41;0.70;;;0.50;;
6442;SDS011;3254;47.372;8.512;2022-10-22T07:14:09;1.63;;;0.50;;
6442;SDS011;3254;47.372;8.512;2022-10-22T07:16:35;0.93;;;0.70;;
6442;SDS011;3254;47.372;8.512;2022-10-22T07:19:02;0.70;;;0.47;;
6442;SDS011;3254;47.372;8.512;2022-10-22T07:21:29;2.30;;;0.50;;
6442;SDS011;3254;47.372;8.512;2022-10-22T07:23:55;3.43;;;0.77;;
6442;SDS011;3254;47.372;8.512;2022-10-22T07:26:21;0.60;;;0.30;;
6442;SDS011;3254;47.372;8.512;2022-10-22T07:28:49;1.63;;;0.90;;
6442;SDS011;3254;47.372;8.512;2022-10-22T07:31:16;0.60;;;0.40;;
6442;SDS011;3254;47.372;8.512;2022-10-22T07:33:43;0.80;;;0.50;;
6442;SDS011;3254;47.372;8.512;2022-10-22T07:36:10;0.80;;;0.50;;
6442;SDS011;3254;47.372;8.512;2022-10-22T07:38:41;0.80;;;0.50;;
6442;SDS011;3254;47.372;8.512;2022-10-22T07:41:08;0.70;;;0.40;;
6442;SDS011;3254;47.372;8.512;2022-10-22T07:43:34;1.00;;;0.83;;
6442;SDS011;3254;47.372;8.512;2022-10-22T07:45:59;1.37;;;0.93;;
6442;SDS011;3254;47.372;8.512;2022-10-22T07:48:26;0.80;;;0.50;;
6442;SDS011;3254;47.372;8.512;2022-10-22T07:50:53;7.83;;;0.87;;
6442;SDS011;3254;47.372;8.512;2022-10-22T07:53:19;0.80;;;0.60;;
6442;SDS011;3254;47.372;8.512;2022-10-22T07:55:48;1.00;;;0.60;;
6442;SDS011;3254;47.372;8.512;2022-10-22T07:58:18;1.20;;;0.60;;
6442;SDS011;3254;47.372;8.512;2022-10-22T08:00:44;1.47;;;0.60;;
6442;SDS011;3254;47.372;8.512;2022-10-22T08:03:11;0.90;;;0.70;;
6442;SDS011;3254;47.372;8.512;2022-10-22T08:05:38;3.63;;;0.50;;
6442;SDS011;3254;47.372;8.512;2022-10-22T08:08:04;0.60;;;0.40;;
6442;SDS011;3254;47.372;8.512;2022-10-22T08:10:30;1.93;;;0.83;;
6442;SDS011;3254;47.372;8.512;2022-10-22T08:12:56;0.70;;;0.50;;
6442;SDS011;3254;47.372;8.512;2022-10-22T08:15:22;5.70;;;0.60;;
6442;SDS011;3254;47.372;8.512;2022-10-22T08:17:49;0.90;;;0.57;;
6442;SDS011;3254;47.372;8.512;2022-10-22T08:20:15;0.80;;;0.40;;
6442;SDS011;3254;47.372;8.512;2022-10-22T08:22:42;2.40;;;0.70;;
6442;SDS011;3254;47.372;8.512;2022-10-22T08:25:07;1.07;;;0.60;;
6442;SDS011;3254;47.372;8.512;2022-10-22T08:27:33;1.30;;;0.70;;
6442;SDS011;3254;47.372;8.512;2022-10-22T08:29:59;0.93;;;0.67;;
6442;SDS011;3254;47.372;8.512;2022-10-22T08:32:24;2.30;;;0.60;;
6442;SDS011;3254;47.372;8.512;2022-10-22T08:34:50;1.73;;;0.60;;
6442;SDS011;3254;47.372;8.512;2022-10-22T08:37:16;0.70;;;0.40;;
6442;SDS011;3254;47.372;8.512;2022-10-22T08:39:42;0.80;;;0.60;;
6442;SDS011;3254;47.372;8.512;2022-10-22T08:45:03;1.50;;;0.70;;
6442;SDS011;3254;47.372;8.512;2022-10-22T08:50:11;1.57;;;0.60;;
6442;SDS011;3254;47.372;8.512;2022-10-22T08:52:41;0.80;;;0.70;;
6442;SDS011;3254;47.372;8.512;2022-10-22T08:55:13;0.80;;;0.50;;
6442;SDS011;3254;47.372;8.512;2022-10-22T09:00:34;1.47;;;0.67;;
6442;SDS011;3254;47.372;8.512;2022-10-22T09:08:11;0.80;;;0.50;;
6442;SDS011;3254;47.372;8.512;2022-10-22T09:10:39;2.30;;;2.10;;
6442;SDS011;3254;47.372;8.512;2022-10-22T09:13:12;1.00;;;0.60;;
6442;SDS011;3254;47.372;8.512;2022-10-22T09:15:41;2.90;;;1.10;;
6442;SDS011;3254;47.372;8.512;2022-10-22T09:20:53;1.00;;;0.80;;
6442;SDS011;3254;47.372;8.512;2022-10-22T09:25:51;0.90;;;0.50;;
6442;SDS011;3254;47.372;8.512;2022-10-22T09:28:17;2.73;;;1.07;;
6442;SDS011;3254;47.372;8.512;2022-10-22T09:30:43;2.53;;;1.00;;
6442;SDS011;3254;47.372;8.512;2022-10-22T09:33:12;3.10;;;0.60;;
6442;SDS011;3254;47.372;8.512;2022-10-22T09:36:01;1.23;;;0.70;;
6442;SDS011;3254;47.372;8.512;2022-10-22T09:38:38;1.10;;;0.60;;
6442;SDS011;3254;47.372;8.512;2022-10-22T09:41:05;1.10;;;0.50;;
6442;SDS011;3254;47.372;8.512;2022-10-22T09:43:32;0.90;;;0.60;;
6442;SDS011;3254;47.372;8.512;2022-10-22T09:46:01;0.80;;;0.50;;
6442;SDS011;3254;47.372;8.512;2022-10-22T09:48:35;2.47;;;2.30;;
6442;SDS011;3254;47.372;8.512;2022-10-22T09:51:05;1.10;;;0.80;;
6442;SDS011;3254;47.372;8.512;2022-10-22T09:53:35;0.90;;;0.73;;
6442;SDS011;3254;47.372;8.512;2022-10-22T09:56:38;1.07;;;0.50;;
6442;SDS011;3254;47.372;8.512;2022-10-22T09:59:00;2.50;;;0.70;;
6442;SDS011;3254;47.372;8.512;2022-10-22T10:01:35;1.57;;;0.90;;
6442;SDS011;3254;47.372;8.512;2022-10-22T10:04:14;2.00;;;1.90;;
6442;SDS011;3254;47.372;8.512;2022-10-22T10:06:41;1.93;;;0.80;;
6442;SDS011;3254;47.372;8.512;2022-10-22T10:09:16;1.20;;;0.60;;
6442;SDS011;3254;47.372;8.512;2022-10-22T10:14:47;1.73;;;0.70;;
6442;SDS011;3254;47.372;8.512;2022-10-22T10:20:15;3.83;;;1.10;;
6442;SDS011;3254;47.372;8.512;2022-10-22T10:30:47;5.40;;;1.07;;
6442;SDS011;3254;47.372;8.512;2022-10-22T10:39:07;2.03;;;0.77;;
6442;SDS011;3254;47.372;8.512;2022-10-22T10:41:49;1.20;;;1.10;;
6442;SDS011;3254;47.372;8.512;2022-10-22T10:47:18;1.33;;;0.90;;
6442;SDS011;3254;47.372;8.512;2022-10-22T10:52:59;0.90;;;0.70;;
6442;SDS011;3254;47.372;8.512;2022-10-22T10:55:53;2.90;;;0.90;;
6442;SDS011;3254;47.372;8.512;2022-10-22T10:58:47;0.80;;;0.53;;
6442;SDS011;3254;47.372;8.512;2022-10-22T11:01:37;2.10;;;0.53;;
6442;SDS011;3254;47.372;8.512;2022-10-22T11:04:22;3.00;;;0.77;;
6442;SDS011;3254;47.372;8.512;2022-10-22T11:06:51;0.90;;;0.53;;
6442;SDS011;3254;47.372;8.512;2022-10-22T11:09:28;0.80;;;0.53;;
6442;SDS011;3254;47.372;8.512;2022-10-22T11:12:03;0.90;;;0.60;;
6442;SDS011;3254;47.372;8.512;2022-10-22T11:17:05;0.80;;;0.60;;
6442;SDS011;3254;47.372;8.512;2022-10-22T11:22:23;1.63;;;0.57;;
6442;SDS011;3254;47.372;8.512;2022-10-22T11:24:54;2.73;;;0.60;;
6442;SDS011;3254;47.372;8.512;2022-10-22T11:27:46;0.80;;;0.50;;
6442;SDS011;3254;47.372;8.512;2022-10-22T11:30:23;0.90;;;0.70;;
6442;SDS011;3254;47.372;8.512;2022-10-22T11:32:51;0.80;;;0.77;;
6442;SDS011;3254;47.372;8.512;2022-10-22T11:35:21;1.00;;;0.80;;
6442;SDS011;3254;47.372;8.512;2022-10-22T11:37:50;0.70;;;0.40;;
6442;SDS011;3254;47.372;8.512;2022-10-22T11:40:20;1.37;;;0.60;;
6442;SDS011;3254;47.372;8.512;2022-10-22T11:42:56;2.53;;;0.53;;
6442;SDS011;3254;47.372;8.512;2022-10-22T11:50:22;0.90;;;0.40;;
6442;SDS011;3254;47.372;8.512;2022-10-22T11:55:28;2.47;;;1.00;;
6442;SDS011;3254;47.372;8.512;2022-10-22T12:14:12;0.70;;;0.40;;
6442;SDS011;3254;47.372;8.512;2022-10-22T12:16:56;4.00;;;0.50;;
6442;SDS011;3254;47.372;8.512;2022-10-22T12:19:33;0.90;;;0.50;;
6442;SDS011;3254;47.372;8.512;2022-10-22T12:24:31;0.90;;;0.50;;
6442;SDS011;3254;47.372;8.512;2022-10-22T12:27:00;1.00;;;0.70;;
6442;SDS011;3254;47.372;8.512;2022-10-22T12:29:26;5.23;;;0.63;;
6442;SDS011;3254;47.372;8.512;2022-10-22T12:31:55;3.70;;;0.93;;
6442;SDS011;3254;47.372;8.512;2022-10-22T12:34:22;2.00;;;1.13;;
6442;SDS011;3254;47.372;8.512;2022-10-22T12:36:50;1.10;;;0.73;;
6442;SDS011;3254;47.372;8.512;2022-10-22T12:39:18;1.60;;;0.67;;
6442;SDS011;3254;47.372;8.512;2022-10-22T12:41:46;0.90;;;0.50;;
6442;SDS011;3254;47.372;8.512;2022-10-22T12:44:13;1.00;;;0.50;;
6442;SDS011;3254;47.372;8.512;2022-10-22T12:46:40;0.80;;;0.50;;
6442;SDS011;3254;47.372;8.512;2022-10-22T12:49:16;2.90;;;0.60;;
6442;SDS011;3254;47.372;8.512;2022-10-22T12:51:44;1.77;;;0.90;;
6442;SDS011;3254;47.372;8.512;2022-10-22T12:54:27;1.53;;;1.13;;
6442;SDS011;3254;47.372;8.512;2022-10-22T12:56:55;0.90;;;0.60;;
6442;SDS011;3254;47.372;8.512;2022-10-22T13:02:11;1.40;;;0.63;;
6442;SDS011;3254;47.372;8.512;2022-10-22T13:07:52;3.23;;;0.90;;
6442;SDS011;3254;47.372;8.512;2022-10-22T13:10:28;0.80;;;0.57;;
6442;SDS011;3254;47.372;8.512;2022-10-22T13:12:59;3.07;;;0.60;;
6442;SDS011;3254;47.372;8.512;2022-10-22T13:20:52;0.80;;;0.60;;
6442;SDS011;3254;47.372;8.512;2022-10-22T13:23:23;3.03;;;0.50;;
6442;SDS011;3254;47.372;8.512;2022-10-22T13:28:22;2.87;;;0.70;;
6442;SDS011;3254;47.372;8.512;2022-10-22T13:30:56;1.30;;;0.60;;
6442;SDS011;3254;47.372;8.512;2022-10-22T13:33:32;1.87;;;0.60;;
6442;SDS011;3254;47.372;8.512;2022-10-22T13:36:01;1.10;;;0.60;;
6442;SDS011;3254;47.372;8.512;2022-10-22T13:38:27;4.50;;;1.00;;
6442;SDS011;3254;47.372;8.512;2022-10-22T13:40:53;0.80;;;0.50;;
6442;SDS011;3254;47.372;8.512;2022-10-22T13:43:19;2.23;;;0.80;;
6442;SDS011;3254;47.372;8.512;2022-10-22T13:45:45;0.90;;;0.70;;
6442;SDS011;3254;47.372;8.512;2022-10-22T13:48:13;1.27;;;0.60;;
6442;SDS011;3254;47.372;8.512;2022-10-22T13:50:40;0.87;;;0.60;;
6442;SDS011;3254;47.372;8.512;2022-10-22T13:53:08;3.93;;;1.00;;
6442;SDS011;3254;47.372;8.512;2022-10-22T13:55:42;2.50;;;0.60;;
6442;SDS011;3254;47.372;8.512;2022-10-22T13:58:12;1.17;;;0.70;;
6442;SDS011;3254;47.372;8.512;2022-10-22T14:00:44;2.60;;;1.60;;
6442;SDS011;3254;47.372;8.512;2022-10-22T14:03:12;1.93;;;1.33;;
6442;SDS011;3254;47.372;8.512;2022-10-22T14:05:47;1.80;;;1.10;;
6442;SDS011;3254;47.372;8.512;2022-10-22T14:08:17;3.13;;;0.67;;
6442;SDS011;3254;47.372;8.512;2022-10-22T14:10:44;1.20;;;0.60;;
6442;SDS011;3254;47.372;8.512;2022-10-22T14:13:11;1.27;;;0.70;;
6442;SDS011;3254;47.372;8.512;2022-10-22T14:15:37;1.27;;;0.90;;
6442;SDS011;3254;47.372;8.512;2022-10-22T14:18:05;2.80;;;0.80;;
6442;SDS011;3254;47.372;8.512;2022-10-22T14:20:32;2.30;;;0.60;;
6442;SDS011;3254;47.372;8.512;2022-10-22T14:23:12;3.20;;;0.60;;
6442;SDS011;3254;47.372;8.512;2022-10-22T14:25:40;0.80;;;0.67;;
6442;SDS011;3254;47.372;8.512;2022-10-22T14:28:09;2.83;;;0.70;;
6442;SDS011;3254;47.372;8.512;2022-10-22T14:30:36;0.80;;;0.50;;
6442;SDS011;3254;47.372;8.512;2022-10-22T14:33:05;1.33;;;0.70;;
6442;SDS011;3254;47.372;8.512;2022-10-22T14:35:38;3.50;;;0.70;;
6442;SDS011;3254;47.372;8.512;2022-10-22T14:38:04;0.90;;;0.67;;
6442;SDS011;3254;47.372;8.512;2022-10-22T14:40:30;1.10;;;0.70;;
6442;SDS011;3254;47.372;8.512;2022-10-22T14:42:55;1.73;;;0.70;;
6442;SDS011;3254;47.372;8.512;2022-10-22T14:45:22;0.90;;;0.70;;
6442;SDS011;3254;47.372;8.512;2022-10-22T14:47:50;0.80;;;0.50;;
6442;SDS011;3254;47.372;8.512;2022-10-22T14:50:18;5.50;;;0.80;;
6442;SDS011;3254;47.372;8.512;2022-10-22T14:52:44;1.73;;;0.70;;
6442;SDS011;3254;47.372;8.512;2022-10-22T14:55:10;2.97;;;1.30;;
6442;SDS011;3254;47.372;8.512;2022-10-22T14:57:38;5.33;;;0.90;;
6442;SDS011;3254;47.372;8.512;2022-10-22T15:00:05;1.73;;;1.10;;
6442;SDS011;3254;47.372;8.512;2022-10-22T15:02:33;1.10;;;1.00;;
6442;SDS011;3254;47.372;8.512;2022-10-22T15:04:59;2.63;;;0.60;;
6442;SDS011;3254;47.372;8.512;2022-10-22T15:07:25;1.40;;;0.80;;
6442;SDS011;3254;47.372;8.512;2022-10-22T15:09:51;4.50;;;0.60;;
6442;SDS011;3254;47.372;8.512;2022-10-22T15:12:18;2.53;;;0.50;;
6442;SDS011;3254;47.372;8.512;2022-10-22T15:14:44;0.80;;;0.40;;
6442;SDS011;3254;47.372;8.512;2022-10-22T15:17:14;4.50;;;1.00;;
6442;SDS011;3254;47.372;8.512;2022-10-22T15:19:44;0.90;;;0.60;;
6442;SDS011;3254;47.372;8.512;2022-10-22T15:22:10;1.10;;;1.00;;
6442;SDS011;3254;47.372;8.512;2022-10-22T15:24:37;2.43;;;0.90;;
6442;SDS011;3254;47.372;8.512;2022-10-22T15:27:03;6.70;;;1.23;;
6442;SDS011;3254;47.372;8.512;2022-10-22T15:29:29;2.50;;;0.80;;
6442;SDS011;3254;47.372;8.512;2022-10-22T15:31:56;3.53;;;0.67;;
6442;SDS011;3254;47.372;8.512;2022-10-22T15:34:24;2.50;;;0.70;;
6442;SDS011;3254;47.372;8.512;2022-10-22T15:36:53;1.43;;;0.80;;
6442;SDS011;3254;47.372;8.512;2022-10-22T15:39:20;1.33;;;1.10;;
6442;SDS011;3254;47.372;8.512;2022-10-22T15:41:47;1.00;;;0.90;;
6442;SDS011;3254;47.372;8.512;2022-10-22T15:44:14;2.90;;;1.10;;
6442;SDS011;3254;47.372;8.512;2022-10-22T15:46:41;9.10;;;1.13;;
6442;SDS011;3254;47.372;8.512;2022-10-22T15:49:07;1.77;;;1.10;;
6442;SDS011;3254;47.372;8.512;2022-10-22T15:51:33;3.93;;;2.00;;
6442;SDS011;3254;47.372;8.512;2022-10-22T15:53:59;1.63;;;1.53;;
6442;SDS011;3254;47.372;8.512;2022-10-22T15:56:25;1.63;;;1.53;;
6442;SDS011;3254;47.372;8.512;2022-10-22T15:58:56;3.93;;;1.27;;
6442;SDS011;3254;47.372;8.512;2022-10-22T16:01:24;1.60;;;1.50;;
6442;SDS011;3254;47.372;8.512;2022-10-22T16:03:51;1.80;;;1.33;;
6442;SDS011;3254;47.372;8.512;2022-10-22T16:06:23;1.73;;;1.37;;
6442;SDS011;3254;47.372;8.512;2022-10-22T16:08:50;1.83;;;0.90;;
6442;SDS011;3254;47.372;8.512;2022-10-22T16:11:16;5.00;;;1.80;;
6442;SDS011;3254;47.372;8.512;2022-10-22T16:13:41;4.20;;;2.40;;
6442;SDS011;3254;47.372;8.512;2022-10-22T16:16:07;7.07;;;1.77;;
6442;SDS011;3254;47.372;8.512;2022-10-22T16:18:33;3.40;;;1.60;;
6442;SDS011;3254;47.372;8.512;2022-10-22T16:20:58;2.60;;;1.57;;
6442;SDS011;3254;47.372;8.512;2022-10-22T16:23:24;1.70;;;1.40;;
6442;SDS011;3254;47.372;8.512;2022-10-22T16:25:49;1.97;;;1.40;;
6442;SDS011;3254;47.372;8.512;2022-10-22T16:28:15;1.60;;;1.50;;
6442;SDS011;3254;47.372;8.512;2022-10-22T16:30:41;2.00;;;1.53;;
6442;SDS011;3254;47.372;8.512;2022-10-22T16:33:06;2.80;;;1.50;;
6442;SDS011;3254;47.372;8.512;2022-10-22T16:35:33;9.50;;;2.40;;
6442;SDS011;3254;47.372;8.512;2022-10-22T16:38:03;3.77;;;3.47;;
6442;SDS011;3254;47.372;8.512;2022-10-22T16:40:28;6.93;;;2.43;;
6442;SDS011;3254;47.372;8.512;2022-10-22T16:42:54;4.63;;;2.50;;
6442;SDS011;3254;47.372;8.512;2022-10-22T16:45:20;6.50;;;3.60;;
6442;SDS011;3254;47.372;8.512;2022-10-22T16:47:45;7.93;;;3.93;;
6442;SDS011;3254;47.372;8.512;2022-10-22T16:50:13;4.90;;;3.17;;
6442;SDS011;3254;47.372;8.512;2022-10-22T16:52:39;8.60;;;4.97;;
6442;SDS011;3254;47.372;8.512;2022-10-22T16:55:05;7.17;;;3.20;;
6442;SDS011;3254;47.372;8.512;2022-10-22T16:57:30;3.20;;;2.70;;
6442;SDS011;3254;47.372;8.512;2022-10-22T16:59:57;3.20;;;2.90;;
6442;SDS011;3254;47.372;8.512;2022-10-22T17:02:23;2.60;;;2.30;;
6442;SDS011;3254;47.372;8.512;2022-10-22T17:04:49;12.50;;;3.00;;
6442;SDS011;3254;47.372;8.512;2022-10-22T17:07:15;4.13;;;2.03;;
6442;SDS011;3254;47.372;8.512;2022-10-22T17:09:41;2.80;;;2.10;;
6442;SDS011;3254;47.372;8.512;2022-10-22T17:12:06;8.20;;;2.17;;
6442;SDS011;3254;47.372;8.512;2022-10-22T17:14:32;19.20;;;3.00;;
6442;SDS011;3254;47.372;8.512;2022-10-22T17:16:58;3.40;;;2.03;;
6442;SDS011;3254;47.372;8.512;2022-10-22T17:19:24;8.63;;;2.50;;
6442;SDS011;3254;47.372;8.512;2022-10-22T17:21:51;3.87;;;2.30;;
6442;SDS011;3254;47.372;8.512;2022-10-22T17:24:17;4.23;;;2.20;;
6442;SDS011;3254;47.372;8.512;2022-10-22T17:26:43;8.27;;;3.00;;